Flight Track Log - Related Links

Times and Time Zones

All times are in EDT time to prevent confusion due to time zone crossing. See the UAL4543 flight status page for this flight to view local times or setup timezone preferences in your user account.

Time Position Orientation Groundspeed Altitude Reporting Facility
EDT Latitude Longitude Course Direction KTS MPH feet Rate Location/Type
Thu 03:35:04 PM 35.8686 -78.8089 234° Southwest 163 188 1,300  Level Washington Center
Thu 03:36:05 PM 35.8381 -78.8614 234° Southwest 204 235 4,100 2,963 Climbing Washington Center
Thu 03:37:48 PM 35.9244 -78.9111 335° Northwest 241 277 9,400 2,503 Climbing Washington Center
Thu 03:38:48 PM 35.9925 -78.8625 30° Northeast 251 289 10,900 1,600 Climbing Washington Center
Thu 03:39:48 PM 36.0817 -78.8047 28° Northeast 302 348 12,600 2,050 Climbing Washington Center
Thu 03:40:48 PM 36.1833 -78.7494 24° Northeast 343 395 15,000 2,300 Climbing Washington Center
Thu 03:41:48 PM 36.2825 -78.7019 21° North 380 437 17,200 1,950 Climbing Washington Center
Thu 03:42:48 PM 36.3797 -78.6544 21° North 380 437 18,900 1,800 Climbing Washington Center
Thu 03:43:48 PM 36.4706 -78.6089 22° Northeast 380 437 20,800 2,050 Climbing Washington Center
Thu 03:44:48 PM 36.5825 -78.5561 21° North 385 443 23,000 1,600 Climbing Washington Center
Thu 03:45:48 PM 36.6778 -78.5056 23° Northeast 391 450 24,000 1,750 Climbing Washington Center
Thu 03:46:48 PM 36.7878 -78.4369 27° Northeast 404 465 26,500 1,500 Climbing Washington Center
Thu 03:47:48 PM 36.8856 -78.3600 32° Northeast 399 459 27,000 250 Climbing Washington Center
Thu 03:48:48 PM 36.9611 -78.2561 48° Northeast 404 465 27,000  Level Washington Center
Thu 03:49:48 PM 36.9722 -78.1239 84° East 355 409 27,000  Level Washington Center
Thu 03:50:48 PM 36.9750 -77.9889 88° East 362 417 27,000  Level Washington Center
Thu 03:51:48 PM 36.9797 -77.8514 87° East 373 429 27,000  Level Washington Center
Thu 03:52:48 PM 37.0236 -77.7278 66° East 385 443 27,000  Level Washington Center
Thu 03:53:48 PM 37.1189 -77.6600 30° Northeast 361 415 27,000  Level Washington Center
Thu 03:54:48 PM 37.2292 -77.6786 352° North 342 394 27,000  Level Washington Center
Thu 03:55:48 PM 37.3306 -77.7128 345° North 341 392 27,000  Level Washington Center
Thu 03:56:48 PM 37.4319 -77.6500 26° Northeast 371 427 27,000  Level Washington Center
Thu 03:57:48 PM 37.5289 -77.5794 30° Northeast 384 442 27,000  Level Washington Center
Thu 03:58:48 PM 37.6303 -77.5086 29° Northeast 398 458 27,000  Level Washington Center
Thu 03:59:48 PM 37.7253 -77.4428 29° Northeast 403 464 27,000  Level Washington Center
Thu 04:00:48 PM 37.8200 -77.3742 30° Northeast 393 452 27,000  Level Washington Center
Thu 04:01:48 PM 37.9150 -77.3078 29° Northeast 393 452 27,000  Level Washington Center
Thu 04:02:48 PM 38.0119 -77.2364 30° Northeast 393 452 27,000  Level Washington Center
Thu 04:03:48 PM 38.1108 -77.1700 28° Northeast 393 452 27,000  Level Washington Center
Thu 04:04:48 PM 38.2097 -77.1006 29° Northeast 401 461 27,000  Level Washington Center
Thu 04:05:48 PM 38.3042 -77.0311 30° Northeast 395 455 27,000  Level Washington Center
Thu 04:06:48 PM 38.3906 -76.9719 28° Northeast 390 449 27,000  Level Washington Center
Thu 04:07:48 PM 38.4956 -76.8994 28° Northeast 406 467 27,000  Level Washington Center
Thu 04:08:48 PM 38.6028 -76.8164 31° Northeast 427 491 27,000  Level Washington Center
Thu 04:09:48 PM 38.7161 -76.7331 30° Northeast 448 516 27,000  Level Washington Center
Thu 04:10:48 PM 38.8214 -76.6122 42° Northeast 461 531 27,000  Level Washington Center
Thu 04:11:48 PM 38.9161 -76.5014 42° Northeast 466 536 27,000  Level Washington Center
Thu 04:12:48 PM 39.0108 -76.3903 42° Northeast 460 529 27,000  Level Washington Center
Thu 04:13:48 PM 39.1072 -76.2792 42° Northeast 454 522 27,000  Level Washington Center
Thu 04:14:48 PM 39.2017 -76.1647 43° Northeast 462 532 27,000  Level Washington Center
Thu 04:15:48 PM 39.2939 -76.0636 40° Northeast 467 537 27,000  Level Washington Center
Thu 04:16:48 PM 39.3858 -75.9542 43° Northeast 462 532 27,000 -200 Level Washington Center
Thu 04:17:48 PM 39.4842 -75.8417 41° Northeast 457 526 26,600 -1,000 Descending Washington Center
Thu 04:18:48 PM 39.5906 -75.7128 43° Northeast 469 540 25,000 -2,050 Descending Washington Center
Thu 04:19:48 PM 39.6906 -75.5969 42° Northeast 469 540 22,500 -2,500 Descending Washington Center
Thu 04:20:48 PM 39.7822 -75.4861 43° Northeast 464 534 20,000 -2,250 Descending Washington Center
Thu 04:21:48 PM 39.8739 -75.3753 43° Northeast 457 526 18,000 -2,300 Descending Washington Center
Thu 04:22:48 PM 39.9589 -75.2719 43° Northeast 440 506 15,400 -2,450 Descending Washington Center
Thu 04:23:48 PM 40.0442 -75.1661 44° Northeast 426 490 13,100 -1,753 Descending Washington Center
Thu 04:25:22 PM 40.1667 -75.0167 43° Northeast 381 438 10,900 -1,286 Descending New York TRACON
Thu 04:26:22 PM 40.2333 -74.9333 44° Northeast 322 371 9,800 -1,400 Descending New York TRACON
Thu 04:27:22 PM 40.3000 -74.8500 44° Northeast 306 352 8,100 -1,200 Descending New York TRACON
Thu 04:28:22 PM 40.3500 -74.7667 52° Northeast 307 353 7,400 -750 Descending New York TRACON
Thu 04:29:22 PM 40.4333 -74.7333 17° North 311 358 6,600 -667 Descending New York TRACON
Thu 04:30:28 PM 40.5333 -74.6833 21° North 303 349 6,000 -300 Descending New York TRACON
Thu 04:31:22 PM 40.6000 -74.6667 11° North 305 351 6,000  Level New York TRACON
Thu 04:32:22 PM 40.6833 -74.6333 17° North 309 356 6,000  Level New York TRACON
Thu 04:33:28 PM 40.7667 -74.6000 17° North 307 353 6,000  Level New York TRACON
Thu 04:34:22 PM 40.8500 -74.5833 North 308 354 6,000  Level New York TRACON
Thu 04:35:22 PM 40.9333 -74.5667 North 302 348 6,000  Level New York TRACON

Login

Don't have an account? Register now (free) for customized features, flight alerts, and more!